La Grande, Oregon
Current Conditions -  °F | °C
As of 7:35 PM on Friday 19 Dec 2014 (Local Time) from KLGD Reporting Station
Clear Clear  
Wind Chill: 29°   Ceiling: Unl
Heat Index: 37°   Visibility: 10mi
Dew Point: 28°   Wind: 14mph
Humidity: 70%   Direction: 180°S
Pressure: 30.03"   Gusts: NA
Location:  45.33°N, 118.09°W
Report Text: KLGD 200335Z AUTO 18012KT 10SM CLR 03/M02 A3003 RMK AO1
Loading
Personal Weather Stations






























Interactive Weather Map New forecast layout! Learn more

10-Day Weather Forecast

Advertisements
Track Severe Weather on mobile